sensor_id;sensor_type;location;lat;lon;timestamp;pressure;altitude;pressure_sealevel;temperature;humidity
11053;BME280;55230;42.602;23.470;2022-10-31T00:01:49;94087.94;;;12.73;65.15
11053;BME280;55230;42.602;23.470;2022-10-31T00:04:17;93993.91;;;12.55;66.31
11053;BME280;55230;42.602;23.470;2022-10-31T00:06:43;93996.63;;;12.55;66.71
11053;BME280;55230;42.602;23.470;2022-10-31T00:09:10;93990.00;;;12.56;66.60
11053;BME280;55230;42.602;23.470;2022-10-31T00:11:37;93949.50;;;12.26;67.40
11053;BME280;55230;42.602;23.470;2022-10-31T00:14:05;93980.50;;;12.43;67.94
11053;BME280;55230;42.602;23.470;2022-10-31T00:16:31;94006.16;;;12.29;67.98
11053;BME280;55230;42.602;23.470;2022-10-31T00:19:00;93940.63;;;12.16;67.71
11053;BME280;55230;42.602;23.470;2022-10-31T00:21:29;94008.19;;;12.56;67.93
11053;BME280;55230;42.602;23.470;2022-10-31T00:23:57;93996.03;;;12.60;67.68
11053;BME280;55230;42.602;23.470;2022-10-31T00:26:24;93992.28;;;12.58;67.60
11053;BME280;55230;42.602;23.470;2022-10-31T00:28:51;93992.28;;;12.58;67.89
11053;BME280;55230;42.602;23.470;2022-10-31T00:31:18;93327.88;;;8.10;67.45
11053;BME280;55230;42.602;23.470;2022-10-31T00:33:45;93966.78;;;12.37;67.72
11053;BME280;55230;42.602;23.470;2022-10-31T00:36:13;93476.63;;;8.85;68.17
11053;BME280;55230;42.602;23.470;2022-10-31T00:38:42;93933.38;;;12.13;68.33
11053;BME280;55230;42.602;23.470;2022-10-31T00:41:09;93988.50;;;12.55;68.37
11053;BME280;55230;42.602;23.470;2022-10-31T00:43:36;93990.13;;;12.53;68.94
11053;BME280;55230;42.602;23.470;2022-10-31T00:46:03;93892.16;;;11.91;68.88
11053;BME280;55230;42.602;23.470;2022-10-31T00:48:30;93985.22;;;12.60;68.90
11053;BME280;55230;42.602;23.470;2022-10-31T00:50:57;93928.28;;;12.15;68.96
11053;BME280;55230;42.602;23.470;2022-10-31T00:53:24;93878.59;;;11.82;69.04
11053;BME280;55230;42.602;23.470;2022-10-31T00:55:52;93983.84;;;12.56;68.99
11053;BME280;55230;42.602;23.470;2022-10-31T00:58:19;93985.75;;;12.46;69.72
11053;BME280;55230;42.602;23.470;2022-10-31T01:00:47;93830.19;;;11.26;70.06
11053;BME280;55230;42.602;23.470;2022-10-31T01:03:20;93796.44;;;11.00;70.01
11053;BME280;55230;42.602;23.470;2022-10-31T01:05:55;93989.78;;;12.33;70.59
11053;BME280;55230;42.602;23.470;2022-10-31T01:08:22;93994.16;;;12.39;70.67
11053;BME280;55230;42.602;23.470;2022-10-31T01:11:03;93967.03;;;12.12;71.17
11053;BME280;55230;42.602;23.470;2022-10-31T01:13:30;93998.66;;;12.33;71.10
11053;BME280;55230;42.602;23.470;2022-10-31T01:15:58;93887.81;;;11.63;71.04
11053;BME280;55230;42.602;23.470;2022-10-31T01:18:26;93370.72;;;8.14;70.99
11053;BME280;55230;42.602;23.470;2022-10-31T01:21:00;93982.03;;;12.13;71.15
11053;BME280;55230;42.602;23.470;2022-10-31T01:23:28;93996.84;;;12.30;71.73
11053;BME280;55230;42.602;23.470;2022-10-31T01:26:07;93746.59;;;10.62;71.43
11053;BME280;55230;42.602;23.470;2022-10-31T01:28:36;93879.22;;;11.55;71.75
11053;BME280;55230;42.602;23.470;2022-10-31T01:31:05;93933.91;;;11.90;71.74
11053;BME280;55230;42.602;23.470;2022-10-31T01:33:32;93947.59;;;12.05;71.27
11053;BME280;55230;42.602;23.470;2022-10-31T01:35:59;93902.06;;;11.85;70.75
11053;BME280;55230;42.602;23.470;2022-10-31T01:38:26;94002.19;;;12.61;71.08
11053;BME280;55230;42.602;23.470;2022-10-31T01:40:52;93775.91;;;11.03;71.36
11053;BME280;55230;42.602;23.470;2022-10-31T01:43:21;93856.97;;;11.73;70.80
11053;BME280;55230;42.602;23.470;2022-10-31T01:45:52;93996.66;;;12.64;71.64
11053;BME280;55230;42.602;23.470;2022-10-31T01:48:24;94000.41;;;12.67;71.27
11053;BME280;55230;42.602;23.470;2022-10-31T01:50:56;93996.19;;;12.66;71.42
11053;BME280;55230;42.602;23.470;2022-10-31T01:53:23;93938.22;;;12.27;71.14
11053;BME280;55230;42.602;23.470;2022-10-31T01:55:50;93926.50;;;12.21;71.24
11053;BME280;55230;42.602;23.470;2022-10-31T01:58:22;94008.41;;;12.79;70.86
11053;BME280;55230;42.602;23.470;2022-10-31T02:00:52;93734.97;;;10.95;70.70
11053;BME280;55230;42.602;23.470;2022-10-31T02:03:21;94014.13;;;12.82;71.22
11053;BME280;55230;42.602;23.470;2022-10-31T02:05:49;94001.78;;;12.80;71.24
11053;BME280;55230;42.602;23.470;2022-10-31T02:08:19;94004.34;;;12.84;70.72
11053;BME280;55230;42.602;23.470;2022-10-31T02:10:48;94007.06;;;12.75;71.64
11053;BME280;55230;42.602;23.470;2022-10-31T02:13:15;94004.06;;;12.82;71.14
11053;BME280;55230;42.602;23.470;2022-10-31T02:15:45;93863.00;;;11.86;71.58
11053;BME280;55230;42.602;23.470;2022-10-31T02:18:13;94054.63;;;12.94;71.34
11053;BME280;55230;42.602;23.470;2022-10-31T02:20:48;93864.97;;;11.55;71.39
11053;BME280;55230;42.602;23.470;2022-10-31T02:26:45;94004.59;;;13.08;71.89
11053;BME280;55230;42.602;23.470;2022-10-31T02:30:02;94008.34;;;13.19;71.33
11053;BME280;55230;42.602;23.470;2022-10-31T02:32:41;94014.38;;;13.14;71.27
11053;BME280;55230;42.602;23.470;2022-10-31T02:35:13;94016.91;;;13.18;71.40
11053;BME280;55230;42.602;23.470;2022-10-31T02:37:48;94013.16;;;13.15;71.74
11053;BME280;55230;42.602;23.470;2022-10-31T02:40:22;93931.56;;;12.59;71.42
11053;BME280;55230;42.602;23.470;2022-10-31T02:42:55;94022.63;;;13.29;71.23
11053;BME280;55230;42.602;23.470;2022-10-31T02:45:28;94021.13;;;13.28;70.95
11053;BME280;55230;42.602;23.470;2022-10-31T02:48:01;93948.69;;;12.65;70.77
11053;BME280;55230;42.602;23.470;2022-10-31T02:50:32;93943.03;;;12.90;70.33
11053;BME280;55230;42.602;23.470;2022-10-31T02:53:01;94023.56;;;13.53;70.04
11053;BME280;55230;42.602;23.470;2022-10-31T02:55:51;94018.28;;;13.31;70.86
11053;BME280;55230;42.602;23.470;2022-10-31T02:58:22;93971.75;;;12.97;70.02
11053;BME280;55230;42.602;23.470;2022-10-31T03:01:06;93942.91;;;13.03;69.68
11053;BME280;55230;42.602;23.470;2022-10-31T03:03:45;94033.19;;;13.63;69.94
11053;BME280;55230;42.602;23.470;2022-10-31T03:06:23;94027.78;;;13.54;70.40
11053;BME280;55230;42.602;23.470;2022-10-31T03:08:57;94018.72;;;13.48;70.58
11053;BME280;55230;42.602;23.470;2022-10-31T03:11:31;93647.56;;;10.93;70.56
11053;BME280;55230;42.602;23.470;2022-10-31T03:14:19;93971.19;;;13.20;70.33
11053;BME280;55230;42.602;23.470;2022-10-31T03:16:50;94027.16;;;13.50;70.49
11053;BME280;55230;42.602;23.470;2022-10-31T03:19:23;93795.16;;;11.75;70.00
11053;BME280;55230;42.602;23.470;2022-10-31T03:21:53;93859.22;;;12.32;70.26
11053;BME280;55230;42.602;23.470;2022-10-31T03:24:24;94027.78;;;13.54;70.38
11053;BME280;55230;42.602;23.470;2022-10-31T03:26:55;94012.41;;;13.42;69.86
11053;BME280;55230;42.602;23.470;2022-10-31T03:29:27;93921.03;;;12.79;70.09
11053;BME280;55230;42.602;23.470;2022-10-31T03:31:58;93980.66;;;13.15;70.23
11053;BME280;55230;42.602;23.470;2022-10-31T03:34:28;93634.94;;;10.81;69.68
11053;BME280;55230;42.602;23.470;2022-10-31T03:36:59;94000.53;;;13.30;70.29
11053;BME280;55230;42.602;23.470;2022-10-31T03:39:27;94039.22;;;13.58;69.75
11053;BME280;55230;42.602;23.470;2022-10-31T03:41:57;94039.34;;;13.63;69.97
11053;BME280;55230;42.602;23.470;2022-10-31T03:44:27;94043.41;;;13.59;69.84
11053;BME280;55230;42.602;23.470;2022-10-31T03:46:56;93352.38;;;8.90;69.69
11053;BME280;55230;42.602;23.470;2022-10-31T03:49:23;93674.38;;;10.57;69.96
11053;BME280;55230;42.602;23.470;2022-10-31T03:51:56;94020.25;;;13.40;70.28
11053;BME280;55230;42.602;23.470;2022-10-31T03:54:28;94047.94;;;13.62;70.53
11053;BME280;55230;42.602;23.470;2022-10-31T03:57:05;93889.00;;;12.41;70.76
11053;BME280;55230;42.602;23.470;2022-10-31T03:59:36;94050.63;;;13.62;70.69
11053;BME280;55230;42.602;23.470;2022-10-31T04:02:09;93981.72;;;13.18;70.26
11053;BME280;55230;42.602;23.470;2022-10-31T04:04:37;93331.56;;;8.81;70.16
11053;BME280;55230;42.602;23.470;2022-10-31T04:07:07;93897.22;;;12.20;70.58
11053;BME280;55230;42.602;23.470;2022-10-31T04:09:36;94063.88;;;13.69;70.84
11053;BME280;55230;42.602;23.470;2022-10-31T04:12:06;94055.59;;;13.63;71.05
11053;BME280;55230;42.602;23.470;2022-10-31T04:14:38;94057.28;;;13.61;71.02
11053;BME280;55230;42.602;23.470;2022-10-31T04:17:10;94067.66;;;13.62;71.29
11053;BME280;55230;42.602;23.470;2022-10-31T04:19:38;93896.69;;;12.61;71.20
11053;BME280;55230;42.602;23.470;2022-10-31T04:22:06;94081.34;;;13.59;71.50
11053;BME280;55230;42.602;23.470;2022-10-31T04:24:33;94059.69;;;13.59;71.79
11053;BME280;55230;42.602;23.470;2022-10-31T04:26:59;94061.47;;;13.62;71.79
11053;BME280;55230;42.602;23.470;2022-10-31T04:29:26;93911.84;;;12.58;71.57
11053;BME280;55230;42.602;23.470;2022-10-31T04:31:53;94059.38;;;13.57;72.28
11053;BME280;55230;42.602;23.470;2022-10-31T04:34:20;94058.31;;;13.45;73.07
11053;BME280;55230;42.602;23.470;2022-10-31T04:36:46;93916.06;;;12.50;72.88
11053;BME280;55230;42.602;23.470;2022-10-31T04:39:14;93954.53;;;12.45;72.57
11053;BME280;55230;42.602;23.470;2022-10-31T04:41:41;94054.56;;;13.52;72.21
11053;BME280;55230;42.602;23.470;2022-10-31T04:44:08;94054.06;;;13.08;72.68
11053;BME280;55230;42.602;23.470;2022-10-31T04:46:35;94001.13;;;12.58;72.84
11053;BME280;55230;42.602;23.470;2022-10-31T04:49:01;94085.84;;;13.35;73.54
11053;BME280;55230;42.602;23.470;2022-10-31T04:51:28;94105.34;;;13.12;73.78
11053;BME280;55230;42.602;23.470;2022-10-31T04:53:55;94074.38;;;13.13;73.92
11053;BME280;55230;42.602;23.470;2022-10-31T04:56:23;94085.94;;;13.13;74.33
11053;BME280;55230;42.602;23.470;2022-10-31T04:58:50;94091.09;;;12.71;74.81
11053;BME280;55230;42.602;23.470;2022-10-31T05:01:17;94080.53;;;12.73;74.82
11053;BME280;55230;42.602;23.470;2022-10-31T05:03:43;94063.72;;;12.69;75.70
11053;BME280;55230;42.602;23.470;2022-10-31T05:06:10;94086.56;;;12.38;76.49
11053;BME280;55230;42.602;23.470;2022-10-31T05:08:37;94068.22;;;12.72;76.32
11053;BME280;55230;42.602;23.470;2022-10-31T05:11:04;93961.88;;;12.05;76.86
11053;BME280;55230;42.602;23.470;2022-10-31T05:13:33;94033.38;;;12.35;76.66
11053;BME280;55230;42.602;23.470;2022-10-31T05:15:59;94092.63;;;12.82;76.05
11053;BME280;55230;42.602;23.470;2022-10-31T05:18:26;93897.06;;;11.75;75.97
11053;BME280;55230;42.602;23.470;2022-10-31T05:20:53;93976.34;;;12.20;75.46
11053;BME280;55230;42.602;23.470;2022-10-31T05:23:20;94035.13;;;12.59;75.52
11053;BME280;55230;42.602;23.470;2022-10-31T05:25:46;94098.22;;;12.96;75.57
11053;BME280;55230;42.602;23.470;2022-10-31T05:28:13;93994.19;;;12.09;76.31
11053;BME280;55230;42.602;23.470;2022-10-31T05:30:41;94045.22;;;12.37;76.03
11053;BME280;55230;42.602;23.470;2022-10-31T05:33:08;94108.13;;;12.90;76.42
11053;BME280;55230;42.602;23.470;2022-10-31T05:35:35;94115.63;;;12.86;76.50
11053;BME280;55230;42.602;23.470;2022-10-31T05:38:02;94059.75;;;12.52;76.56
11053;BME280;55230;42.602;23.470;2022-10-31T05:40:28;94068.56;;;12.44;77.06
11053;BME280;55230;42.602;23.470;2022-10-31T05:42:56;93996.38;;;11.71;77.71
11053;BME280;55230;42.602;23.470;2022-10-31T05:45:24;94106.09;;;12.72;77.19
11053;BME280;55230;42.602;23.470;2022-10-31T05:47:52;94120.31;;;12.55;78.28
11053;BME280;55230;42.602;23.470;2022-10-31T05:50:19;94155.97;;;12.62;78.21
11053;BME280;55230;42.602;23.470;2022-10-31T05:52:47;93968.47;;;11.09;78.41
11053;BME280;55230;42.602;23.470;2022-10-31T05:55:14;94128.91;;;12.10;78.46
11053;BME280;55230;42.602;23.470;2022-10-31T05:57:40;94032.09;;;11.31;78.78
11053;BME280;55230;42.602;23.470;2022-10-31T06:00:09;94142.75;;;12.12;78.26
11053;BME280;55230;42.602;23.470;2022-10-31T06:02:35;94187.16;;;11.90;79.89
11053;BME280;55230;42.602;23.470;2022-10-31T06:05:04;94215.44;;;11.98;80.07
11053;BME280;55230;42.602;23.470;2022-10-31T06:07:34;93911.09;;;10.02;81.96
11053;BME280;55230;42.602;23.470;2022-10-31T06:10:03;94051.44;;;10.71;82.64
11053;BME280;55230;42.602;23.470;2022-10-31T06:12:31;94129.53;;;11.71;83.58
11053;BME280;55230;42.602;23.470;2022-10-31T06:14:57;94014.66;;;10.77;83.72
11053;BME280;55230;42.602;23.470;2022-10-31T06:17:24;94147.78;;;11.67;82.70
11053;BME280;55230;42.602;23.470;2022-10-31T06:19:51;94153.41;;;11.94;82.38
11053;BME280;55230;42.602;23.470;2022-10-31T06:22:19;93930.25;;;10.04;80.91
11053;BME280;55230;42.602;23.470;2022-10-31T06:24:46;94154.88;;;12.29;80.30
11053;BME280;55230;42.602;23.470;2022-10-31T06:27:13;94081.34;;;12.22;79.22
11053;BME280;55230;42.602;23.470;2022-10-31T06:29:39;94162.03;;;12.66;78.52
11053;BME280;55230;42.602;23.470;2022-10-31T06:32:09;94035.91;;;11.43;78.57
11053;BME280;55230;42.602;23.470;2022-10-31T06:34:36;94116.66;;;12.79;77.15
11053;BME280;55230;42.602;23.470;2022-10-31T06:37:03;94169.75;;;13.17;76.54
11053;BME280;55230;42.602;23.470;2022-10-31T06:39:33;94167.34;;;13.10;75.98
11053;BME280;55230;42.602;23.470;2022-10-31T06:41:59;94173.72;;;13.25;75.91
11053;BME280;55230;42.602;23.470;2022-10-31T06:44:26;94179.84;;;13.74;73.86
11053;BME280;55230;42.602;23.470;2022-10-31T06:46:53;94177.97;;;13.44;74.81
11053;BME280;55230;42.602;23.470;2022-10-31T06:49:20;94077.28;;;12.78;74.94
11053;BME280;55230;42.602;23.470;2022-10-31T06:51:47;94155.75;;;13.76;73.30
11053;BME280;55230;42.602;23.470;2022-10-31T06:54:14;94155.44;;;13.74;73.16
11053;BME280;55230;42.602;23.470;2022-10-31T06:56:45;94193.13;;;13.99;73.15
11053;BME280;55230;42.602;23.470;2022-10-31T06:59:12;94127.47;;;13.77;72.50
11053;BME280;55230;42.602;23.470;2022-10-31T07:01:39;94179.56;;;14.17;72.04
11053;BME280;55230;42.602;23.470;2022-10-31T07:04:07;94170.06;;;13.76;73.39
11053;BME280;55230;42.602;23.470;2022-10-31T07:06:34;94189.50;;;13.93;73.09
11053;BME280;55230;42.602;23.470;2022-10-31T07:09:01;94172.63;;;14.07;73.04
11053;BME280;55230;42.602;23.470;2022-10-31T07:11:27;94172.94;;;14.00;73.25
11053;BME280;55230;42.602;23.470;2022-10-31T07:13:56;94128.00;;;13.45;71.82
11053;BME280;55230;42.602;23.470;2022-10-31T07:16:22;94061.94;;;13.33;72.42
11053;BME280;55230;42.602;23.470;2022-10-31T07:18:49;94099.25;;;14.02;70.97
11053;BME280;55230;42.602;23.470;2022-10-31T07:21:16;94177.44;;;14.48;71.46
11053;BME280;55230;42.602;23.470;2022-10-31T07:23:43;94154.25;;;14.20;71.73
11053;BME280;55230;42.602;23.470;2022-10-31T07:26:10;94162.69;;;14.40;71.68
11053;BME280;55230;42.602;23.470;2022-10-31T07:28:36;93902.00;;;13.10;70.14
11053;BME280;55230;42.602;23.470;2022-10-31T07:31:05;94006.56;;;14.21;70.13
11053;BME280;55230;42.602;23.470;2022-10-31T07:33:31;94060.28;;;14.59;68.27
11053;BME280;55230;42.602;23.470;2022-10-31T07:35:59;94157.69;;;15.07;68.57
11053;BME280;55230;42.602;23.470;2022-10-31T07:38:26;94106.22;;;14.80;69.73
11053;BME280;55230;42.602;23.470;2022-10-31T07:40:53;94161.56;;;15.16;69.16
11053;BME280;55230;42.602;23.470;2022-10-31T07:43:20;94159.88;;;14.85;70.01
11053;BME280;55230;42.602;23.470;2022-10-31T07:45:52;94165.97;;;15.13;68.66
11053;BME280;55230;42.602;23.470;2022-10-31T07:48:20;94167.72;;;14.92;68.75
11053;BME280;55230;42.602;23.470;2022-10-31T07:50:47;94176.88;;;15.04;68.84
11053;BME280;55230;42.602;23.470;2022-10-31T07:53:14;93623.41;;;11.47;67.79
11053;BME280;55230;42.602;23.470;2022-10-31T07:55:41;94179.75;;;15.42;67.30
11053;BME280;55230;42.602;23.470;2022-10-31T07:58:10;94175.31;;;15.54;67.25
11053;BME280;55230;42.602;23.470;2022-10-31T08:00:38;94022.16;;;14.53;66.37
11053;BME280;55230;42.602;23.470;2022-10-31T08:03:07;94103.88;;;15.21;66.45
11053;BME280;55230;42.602;23.470;2022-10-31T08:05:35;94121.88;;;15.51;65.10
11053;BME280;55230;42.602;23.470;2022-10-31T08:08:03;94147.19;;;16.04;65.64
11053;BME280;55230;42.602;23.470;2022-10-31T08:10:30;93972.69;;;14.82;63.82
11053;BME280;55230;42.602;23.470;2022-10-31T08:12:58;94177.50;;;15.88;65.18
11053;BME280;55230;42.602;23.470;2022-10-31T08:15:25;94172.53;;;15.86;65.19
11053;BME280;55230;42.602;23.470;2022-10-31T08:17:52;94167.59;;;16.23;64.51
11053;BME280;55230;42.602;23.470;2022-10-31T08:20:19;94102.31;;;15.61;64.31
11053;BME280;55230;42.602;23.470;2022-10-31T08:22:55;94164.97;;;15.90;64.72
11053;BME280;55230;42.602;23.470;2022-10-31T08:25:22;94126.09;;;15.75;64.95
11053;BME280;55230;42.602;23.470;2022-10-31T08:27:50;94134.69;;;16.12;64.03
11053;BME280;55230;42.602;23.470;2022-10-31T08:30:17;94168.94;;;16.42;63.37
11053;BME280;55230;42.602;23.470;2022-10-31T08:32:44;94095.78;;;16.06;63.68
11053;BME280;55230;42.602;23.470;2022-10-31T08:35:11;94146.91;;;16.55;61.83
11053;BME280;55230;42.602;23.470;2022-10-31T08:37:37;93936.31;;;14.88;62.70
11053;BME280;55230;42.602;23.470;2022-10-31T08:40:07;94073.47;;;16.16;62.15
11053;BME280;55230;42.602;23.470;2022-10-31T08:42:33;94098.63;;;16.41;61.19
11053;BME280;55230;42.602;23.470;2022-10-31T08:45:00;94110.94;;;16.51;60.62
11053;BME280;55230;42.602;23.470;2022-10-31T08:47:27;94238.97;;;16.94;61.77
11053;BME280;55230;42.602;23.470;2022-10-31T08:49:54;94170.84;;;17.23;59.67
11053;BME280;55230;42.602;23.470;2022-10-31T08:52:23;94170.50;;;17.51;58.53
11053;BME280;55230;42.602;23.470;2022-10-31T08:54:50;94167.28;;;17.67;57.60
11053;BME280;55230;42.602;23.470;2022-10-31T08:57:18;94170.28;;;17.89;57.46
11053;BME280;55230;42.602;23.470;2022-10-31T08:59:45;93948.25;;;16.31;57.13
11053;BME280;55230;42.602;23.470;2022-10-31T09:02:12;94143.03;;;17.54;57.02
11053;BME280;55230;42.602;23.470;2022-10-31T09:04:38;94177.44;;;17.66;57.50
11053;BME280;55230;42.602;23.470;2022-10-31T09:07:05;94167.19;;;17.81;57.15
11053;BME280;55230;42.602;23.470;2022-10-31T09:09:32;94165.09;;;17.91;55.98
11053;BME280;55230;42.602;23.470;2022-10-31T09:11:59;94168.66;;;17.77;56.15
11053;BME280;55230;42.602;23.470;2022-10-31T09:14:27;94174.84;;;17.43;57.68
11053;BME280;55230;42.602;23.470;2022-10-31T09:16:53;94161.91;;;17.23;58.41
11053;BME280;55230;42.602;23.470;2022-10-31T09:19:20;94178.78;;;17.42;58.33
11053;BME280;55230;42.602;23.470;2022-10-31T09:21:47;94103.34;;;16.84;58.55
11053;BME280;55230;42.602;23.470;2022-10-31T09:24:14;94178.50;;;17.40;58.62
11053;BME280;55230;42.602;23.470;2022-10-31T09:26:40;94172.56;;;17.56;57.41
11053;BME280;55230;42.602;23.470;2022-10-31T09:29:07;94170.28;;;17.69;57.41
11053;BME280;55230;42.602;23.470;2022-10-31T09:31:36;94104.66;;;17.43;57.43
11053;BME280;55230;42.602;23.470;2022-10-31T09:34:03;94143.53;;;17.73;56.54
11053;BME280;55230;42.602;23.470;2022-10-31T09:36:30;94132.06;;;17.49;56.81
11053;BME280;55230;42.602;23.470;2022-10-31T09:38:57;94155.00;;;17.77;56.81
11053;BME280;55230;42.602;23.470;2022-10-31T09:41:28;94084.00;;;17.51;55.73
11053;BME280;55230;42.602;23.470;2022-10-31T09:44:04;94121.16;;;17.89;55.11
11053;BME280;55230;42.602;23.470;2022-10-31T09:46:43;94169.19;;;18.41;54.74
11053;BME280;55230;42.602;23.470;2022-10-31T09:49:30;94082.44;;;18.10;53.15
11053;BME280;55230;42.602;23.470;2022-10-31T09:52:03;94119.91;;;18.81;51.63
11053;BME280;55230;42.602;23.470;2022-10-31T09:54:34;94150.56;;;19.53;50.35
11053;BME280;55230;42.602;23.470;2022-10-31T09:57:05;94158.63;;;19.73;49.17
11053;BME280;55230;42.602;23.470;2022-10-31T09:59:39;94161.69;;;19.86;48.84
11053;BME280;55230;42.602;23.470;2022-10-31T10:02:14;94131.22;;;19.68;48.55
11053;BME280;55230;42.602;23.470;2022-10-31T10:04:48;94153.59;;;20.14;47.50
11053;BME280;55230;42.602;23.470;2022-10-31T10:07:22;94147.69;;;20.26;46.89
11053;BME280;55230;42.602;23.470;2022-10-31T10:09:52;94137.69;;;20.18;47.40
11053;BME280;55230;42.602;23.470;2022-10-31T10:12:34;94124.66;;;19.96;46.24
11053;BME280;55230;42.602;23.470;2022-10-31T10:15:24;94084.94;;;19.64;47.21
11053;BME280;55230;42.602;23.470;2022-10-31T10:18:02;94143.72;;;20.33;46.38
11053;BME280;55230;42.602;23.470;2022-10-31T10:20:37;94100.28;;;19.98;45.90
11053;BME280;55230;42.602;23.470;2022-10-31T10:23:22;94139.50;;;20.37;45.73
11053;BME280;55230;42.602;23.470;2022-10-31T10:25:57;94093.94;;;20.40;46.27
11053;BME280;55230;42.602;23.470;2022-10-31T10:28:30;94132.81;;;20.49;45.47
11053;BME280;55230;42.602;23.470;2022-10-31T10:31:06;94124.06;;;20.34;45.98
11053;BME280;55230;42.602;23.470;2022-10-31T10:33:38;94131.88;;;20.80;46.26
11053;BME280;55230;42.602;23.470;2022-10-31T10:36:10;94021.59;;;19.88;44.03
11053;BME280;55230;42.602;23.470;2022-10-31T10:38:50;94056.72;;;20.00;44.71
11053;BME280;55230;42.602;23.470;2022-10-31T10:41:20;94116.13;;;20.47;45.29
11053;BME280;55230;42.602;23.470;2022-10-31T10:43:48;94049.22;;;19.84;45.07
11053;BME280;55230;42.602;23.470;2022-10-31T10:46:23;94111.78;;;20.13;45.15
11053;BME280;55230;42.602;23.470;2022-10-31T10:49:16;94106.44;;;19.93;45.95
11053;BME280;55230;42.602;23.470;2022-10-31T10:51:46;94063.81;;;19.65;46.49
11053;BME280;55230;42.602;23.470;2022-10-31T10:54:35;94053.00;;;19.39;46.91
11053;BME280;55230;42.602;23.470;2022-10-31T10:57:11;94106.47;;;19.45;47.50
11053;BME280;55230;42.602;23.470;2022-10-31T10:59:39;94055.44;;;19.00;48.22
11053;BME280;55230;42.602;23.470;2022-10-31T11:02:16;94084.22;;;19.27;48.63
11053;BME280;55230;42.602;23.470;2022-10-31T11:04:47;94059.47;;;19.10;48.18
11053;BME280;55230;42.602;23.470;2022-10-31T11:07:15;94104.28;;;19.49;48.48
11053;BME280;55230;42.602;23.470;2022-10-31T11:09:42;94097.50;;;19.45;48.33
11053;BME280;55230;42.602;23.470;2022-10-31T11:12:10;94109.94;;;19.40;48.48
11053;BME280;55230;42.602;23.470;2022-10-31T11:14:44;94075.66;;;19.50;49.04
11053;BME280;55230;42.602;23.470;2022-10-31T11:17:27;94068.63;;;19.38;48.36
11053;BME280;55230;42.602;23.470;2022-10-31T11:20:04;94087.00;;;19.80;49.12
11053;BME280;55230;42.602;23.470;2022-10-31T11:22:31;93995.84;;;19.04;49.45
11053;BME280;55230;42.602;23.470;2022-10-31T11:24:58;94084.13;;;19.52;49.18
11053;BME280;55230;42.602;23.470;2022-10-31T11:27:25;94079.75;;;19.29;49.55
11053;BME280;55230;42.602;23.470;2022-10-31T11:29:52;94073.22;;;19.58;50.79
11053;BME280;55230;42.602;23.470;2022-10-31T11:32:30;94074.06;;;19.81;50.94
11053;BME280;55230;42.602;23.470;2022-10-31T11:34:59;94074.19;;;20.14;51.03
11053;BME280;55230;42.602;23.470;2022-10-31T11:37:29;94071.28;;;20.50;48.43
11053;BME280;55230;42.602;23.470;2022-10-31T11:39:59;94033.91;;;20.42;44.94
11053;BME280;55230;42.602;23.470;2022-10-31T11:42:30;94076.09;;;21.05;44.65
11053;BME280;55230;42.602;23.470;2022-10-31T11:45:04;93792.31;;;18.94;44.26
11053;BME280;55230;42.602;23.470;2022-10-31T11:47:33;94064.34;;;20.99;44.28
11053;BME280;55230;42.602;23.470;2022-10-31T11:50:09;94062.59;;;21.13;43.74
11053;BME280;55230;42.602;23.470;2022-10-31T11:52:39;93614.22;;;18.04;42.90
11053;BME280;55230;42.602;23.470;2022-10-31T11:55:16;93925.81;;;20.48;42.89
11053;BME280;55230;42.602;23.470;2022-10-31T11:57:45;94017.38;;;21.47;42.70
11053;BME280;55230;42.602;23.470;2022-10-31T12:00:21;94046.97;;;21.82;41.16
11053;BME280;55230;42.602;23.470;2022-10-31T12:02:48;94041.78;;;21.61;41.93
11053;BME280;55230;42.602;23.470;2022-10-31T12:05:18;93839.41;;;20.09;42.05
11053;BME280;55230;42.602;23.470;2022-10-31T12:07:48;93644.84;;;18.35;42.14
11053;BME280;55230;42.602;23.470;2022-10-31T12:10:16;93993.59;;;20.48;42.52
11053;BME280;55230;42.602;23.470;2022-10-31T12:13:00;94050.38;;;21.08;42.67
11053;BME280;55230;42.602;23.470;2022-10-31T12:15:33;94051.16;;;21.03;42.69
11053;BME280;55230;42.602;23.470;2022-10-31T12:18:24;94055.59;;;20.95;42.66
11053;BME280;55230;42.602;23.470;2022-10-31T12:21:06;94053.09;;;20.92;42.90
11053;BME280;55230;42.602;23.470;2022-10-31T12:23:44;93740.56;;;18.80;42.99
11053;BME280;55230;42.602;23.470;2022-10-31T12:26:20;94032.19;;;20.72;42.77
11053;BME280;55230;42.602;23.470;2022-10-31T12:29:00;94061.84;;;21.12;42.68
11053;BME280;55230;42.602;23.470;2022-10-31T12:31:37;93989.81;;;20.79;42.61
11053;BME280;55230;42.602;23.470;2022-10-31T12:37:18;94045.06;;;21.43;41.51
11053;BME280;55230;42.602;23.470;2022-10-31T12:40:00;94059.78;;;21.51;41.62
11053;BME280;55230;42.602;23.470;2022-10-31T12:42:49;94048.56;;;21.49;41.56
11053;BME280;55230;42.602;23.470;2022-10-31T12:45:39;94044.00;;;21.68;41.81
11053;BME280;55230;42.602;23.470;2022-10-31T12:48:29;94013.06;;;21.62;40.84
11053;BME280;55230;42.602;23.470;2022-10-31T12:51:04;93977.91;;;21.55;41.55
11053;BME280;55230;42.602;23.470;2022-10-31T12:53:44;94051.78;;;22.16;41.28
11053;BME280;55230;42.602;23.470;2022-10-31T12:56:28;94031.84;;;22.16;40.92
11053;BME280;55230;42.602;23.470;2022-10-31T12:59:00;94040.25;;;22.29;41.06
11053;BME280;55230;42.602;23.470;2022-10-31T13:01:33;94062.91;;;22.35;40.24
11053;BME280;55230;42.602;23.470;2022-10-31T13:04:05;93997.59;;;22.17;40.31
11053;BME280;55230;42.602;23.470;2022-10-31T13:06:36;93997.03;;;22.29;39.40
11053;BME280;55230;42.602;23.470;2022-10-31T13:09:07;94040.78;;;22.92;39.70
11053;BME280;55230;42.602;23.470;2022-10-31T13:11:41;93982.59;;;22.18;39.05
11053;BME280;55230;42.602;23.470;2022-10-31T13:14:15;93940.38;;;22.21;39.48